sensor_id;sensor_type;location;lat;lon;timestamp;P1;durP1;ratioP1;P2;durP2;ratioP2
22334;SDS011;11335;43.848;25.958;2022-09-13T00:01:18;8.52;;;5.60;;
22334;SDS011;11335;43.848;25.958;2022-09-13T00:04:04;6.38;;;5.07;;
22334;SDS011;11335;43.848;25.958;2022-09-13T00:06:50;7.45;;;4.80;;
22334;SDS011;11335;43.848;25.958;2022-09-13T00:09:35;5.15;;;4.50;;
22334;SDS011;11335;43.848;25.958;2022-09-13T00:12:21;6.47;;;4.57;;
22334;SDS011;11335;43.848;25.958;2022-09-13T00:15:07;5.85;;;4.82;;
22334;SDS011;11335;43.848;25.958;2022-09-13T00:17:54;5.88;;;4.78;;
22334;SDS011;11335;43.848;25.958;2022-09-13T00:20:40;5.40;;;4.50;;
22334;SDS011;11335;43.848;25.958;2022-09-13T00:23:26;5.95;;;4.90;;
22334;SDS011;11335;43.848;25.958;2022-09-13T00:26:12;6.13;;;4.75;;
22334;SDS011;11335;43.848;25.958;2022-09-13T00:29:00;5.55;;;4.25;;
22334;SDS011;11335;43.848;25.958;2022-09-13T00:31:46;5.57;;;4.80;;
22334;SDS011;11335;43.848;25.958;2022-09-13T00:34:31;5.32;;;4.50;;
22334;SDS011;11335;43.848;25.958;2022-09-13T00:37:17;8.90;;;5.00;;
22334;SDS011;11335;43.848;25.958;2022-09-13T00:40:03;5.00;;;4.40;;
22334;SDS011;11335;43.848;25.958;2022-09-13T00:42:49;7.07;;;4.85;;
22334;SDS011;11335;43.848;25.958;2022-09-13T00:45:35;7.07;;;4.47;;
22334;SDS011;11335;43.848;25.958;2022-09-13T00:48:21;5.85;;;4.63;;
22334;SDS011;11335;43.848;25.958;2022-09-13T00:51:09;5.53;;;4.60;;
22334;SDS011;11335;43.848;25.958;2022-09-13T00:53:55;5.93;;;4.80;;
22334;SDS011;11335;43.848;25.958;2022-09-13T00:56:45;6.72;;;4.80;;
22334;SDS011;11335;43.848;25.958;2022-09-13T00:59:42;5.75;;;4.63;;
22334;SDS011;11335;43.848;25.958;2022-09-13T01:02:32;5.10;;;4.38;;
22334;SDS011;11335;43.848;25.958;2022-09-13T01:05:19;5.63;;;4.90;;
22334;SDS011;11335;43.848;25.958;2022-09-13T01:08:09;5.90;;;4.40;;
22334;SDS011;11335;43.848;25.958;2022-09-13T01:11:00;6.43;;;4.50;;
22334;SDS011;11335;43.848;25.958;2022-09-13T01:13:47;5.20;;;4.70;;
22334;SDS011;11335;43.848;25.958;2022-09-13T01:16:35;6.00;;;4.68;;
22334;SDS011;11335;43.848;25.958;2022-09-13T01:19:21;8.82;;;5.13;;
22334;SDS011;11335;43.848;25.958;2022-09-13T01:22:28;5.15;;;4.50;;
22334;SDS011;11335;43.848;25.958;2022-09-13T01:32:03;6.53;;;4.70;;
22334;SDS011;11335;43.848;25.958;2022-09-13T01:47:56;9.57;;;5.50;;
22334;SDS011;11335;43.848;25.958;2022-09-13T01:50:52;6.93;;;4.90;;
22334;SDS011;11335;43.848;25.958;2022-09-13T01:53:50;7.88;;;4.97;;
22334;SDS011;11335;43.848;25.958;2022-09-13T02:02:41;5.47;;;4.60;;
22334;SDS011;11335;43.848;25.958;2022-09-13T02:05:30;8.18;;;4.80;;
22334;SDS011;11335;43.848;25.958;2022-09-13T02:08:36;7.80;;;4.93;;
22334;SDS011;11335;43.848;25.958;2022-09-13T02:11:25;7.35;;;4.90;;
22334;SDS011;11335;43.848;25.958;2022-09-13T02:14:12;6.55;;;5.40;;
22334;SDS011;11335;43.848;25.958;2022-09-13T02:17:02;6.15;;;5.38;;
22334;SDS011;11335;43.848;25.958;2022-09-13T02:19:52;7.53;;;5.15;;
22334;SDS011;11335;43.848;25.958;2022-09-13T02:22:43;5.85;;;5.25;;
22334;SDS011;11335;43.848;25.958;2022-09-13T02:25:33;5.82;;;5.00;;
22334;SDS011;11335;43.848;25.958;2022-09-13T02:28:25;8.73;;;5.63;;
22334;SDS011;11335;43.848;25.958;2022-09-13T02:31:22;5.93;;;5.32;;
22334;SDS011;11335;43.848;25.958;2022-09-13T02:34:14;7.75;;;6.10;;
22334;SDS011;11335;43.848;25.958;2022-09-13T02:37:05;7.72;;;5.68;;
22334;SDS011;11335;43.848;25.958;2022-09-13T02:39:54;7.05;;;5.63;;
22334;SDS011;11335;43.848;25.958;2022-09-13T02:42:49;7.95;;;6.00;;
22334;SDS011;11335;43.848;25.958;2022-09-13T02:45:40;7.30;;;5.70;;
22334;SDS011;11335;43.848;25.958;2022-09-13T02:49:18;7.40;;;6.57;;
22334;SDS011;11335;43.848;25.958;2022-09-13T02:57:29;6.93;;;5.93;;
22334;SDS011;11335;43.848;25.958;2022-09-13T03:00:21;6.78;;;5.45;;
22334;SDS011;11335;43.848;25.958;2022-09-13T03:03:08;8.32;;;5.68;;
22334;SDS011;11335;43.848;25.958;2022-09-13T03:05:56;7.15;;;5.93;;
22334;SDS011;11335;43.848;25.958;2022-09-13T03:08:42;8.77;;;6.43;;
22334;SDS011;11335;43.848;25.958;2022-09-13T03:14:27;7.93;;;6.50;;
22334;SDS011;11335;43.848;25.958;2022-09-13T03:17:28;6.55;;;5.38;;
22334;SDS011;11335;43.848;25.958;2022-09-13T03:26:31;7.32;;;6.45;;
22334;SDS011;11335;43.848;25.958;2022-09-13T03:29:26;7.60;;;6.45;;
22334;SDS011;11335;43.848;25.958;2022-09-13T03:35:52;8.32;;;6.68;;
22334;SDS011;11335;43.848;25.958;2022-09-13T03:38:43;10.23;;;7.35;;
22334;SDS011;11335;43.848;25.958;2022-09-13T03:41:38;13.18;;;7.50;;
22334;SDS011;11335;43.848;25.958;2022-09-13T03:44:27;11.32;;;6.90;;
22334;SDS011;11335;43.848;25.958;2022-09-13T03:47:15;8.68;;;6.63;;
22334;SDS011;11335;43.848;25.958;2022-09-13T03:50:03;11.68;;;7.13;;
22334;SDS011;11335;43.848;25.958;2022-09-13T03:52:57;9.35;;;6.40;;
22334;SDS011;11335;43.848;25.958;2022-09-13T03:55:47;9.35;;;6.40;;
22334;SDS011;11335;43.848;25.958;2022-09-13T03:58:33;9.50;;;6.22;;
22334;SDS011;11335;43.848;25.958;2022-09-13T04:01:20;13.45;;;6.30;;
22334;SDS011;11335;43.848;25.958;2022-09-13T04:04:07;9.85;;;6.13;;
22334;SDS011;11335;43.848;25.958;2022-09-13T04:06:53;8.65;;;5.70;;
22334;SDS011;11335;43.848;25.958;2022-09-13T04:09:40;10.75;;;6.60;;
22334;SDS011;11335;43.848;25.958;2022-09-13T04:12:26;13.25;;;6.70;;
22334;SDS011;11335;43.848;25.958;2022-09-13T04:15:15;11.73;;;6.78;;
22334;SDS011;11335;43.848;25.958;2022-09-13T04:18:01;9.07;;;5.97;;
22334;SDS011;11335;43.848;25.958;2022-09-13T04:20:53;9.02;;;5.90;;
22334;SDS011;11335;43.848;25.958;2022-09-13T04:23:40;9.18;;;5.65;;
22334;SDS011;11335;43.848;25.958;2022-09-13T04:26:25;7.57;;;6.40;;
22334;SDS011;11335;43.848;25.958;2022-09-13T04:29:11;8.45;;;6.45;;
22334;SDS011;11335;43.848;25.958;2022-09-13T04:31:57;9.73;;;6.68;;
22334;SDS011;11335;43.848;25.958;2022-09-13T04:34:43;10.25;;;7.15;;
22334;SDS011;11335;43.848;25.958;2022-09-13T04:37:29;12.93;;;7.65;;
22334;SDS011;11335;43.848;25.958;2022-09-13T04:40:15;12.77;;;6.90;;
22334;SDS011;11335;43.848;25.958;2022-09-13T04:43:01;15.68;;;6.50;;
22334;SDS011;11335;43.848;25.958;2022-09-13T04:45:47;16.77;;;6.55;;
22334;SDS011;11335;43.848;25.958;2022-09-13T04:48:33;8.95;;;6.22;;
22334;SDS011;11335;43.848;25.958;2022-09-13T04:51:19;9.80;;;6.10;;
22334;SDS011;11335;43.848;25.958;2022-09-13T04:54:07;10.40;;;5.25;;
22334;SDS011;11335;43.848;25.958;2022-09-13T04:56:54;11.77;;;6.00;;
22334;SDS011;11335;43.848;25.958;2022-09-13T04:59:40;8.13;;;5.20;;
22334;SDS011;11335;43.848;25.958;2022-09-13T05:02:25;6.07;;;5.30;;
22334;SDS011;11335;43.848;25.958;2022-09-13T05:05:11;9.38;;;5.10;;
22334;SDS011;11335;43.848;25.958;2022-09-13T05:07:57;9.02;;;5.22;;
22334;SDS011;11335;43.848;25.958;2022-09-13T05:10:45;9.00;;;5.85;;
22334;SDS011;11335;43.848;25.958;2022-09-13T05:13:31;18.10;;;7.78;;
22334;SDS011;11335;43.848;25.958;2022-09-13T05:16:17;7.75;;;5.40;;
22334;SDS011;11335;43.848;25.958;2022-09-13T05:19:03;6.72;;;4.80;;
22334;SDS011;11335;43.848;25.958;2022-09-13T05:21:49;10.75;;;5.55;;
22334;SDS011;11335;43.848;25.958;2022-09-13T05:24:34;5.22;;;4.72;;
22334;SDS011;11335;43.848;25.958;2022-09-13T05:27:20;10.30;;;5.55;;
22334;SDS011;11335;43.848;25.958;2022-09-13T05:30:06;9.27;;;5.43;;
22334;SDS011;11335;43.848;25.958;2022-09-13T05:32:52;9.32;;;5.25;;
22334;SDS011;11335;43.848;25.958;2022-09-13T05:35:39;8.95;;;5.65;;
22334;SDS011;11335;43.848;25.958;2022-09-13T05:38:25;7.80;;;5.00;;
22334;SDS011;11335;43.848;25.958;2022-09-13T05:41:10;10.85;;;5.65;;
22334;SDS011;11335;43.848;25.958;2022-09-13T05:43:56;9.70;;;6.82;;
22334;SDS011;11335;43.848;25.958;2022-09-13T05:46:45;8.07;;;6.00;;
22334;SDS011;11335;43.848;25.958;2022-09-13T05:49:32;9.52;;;6.40;;
22334;SDS011;11335;43.848;25.958;2022-09-13T05:52:17;10.00;;;6.72;;
22334;SDS011;11335;43.848;25.958;2022-09-13T05:55:03;8.27;;;6.30;;
22334;SDS011;11335;43.848;25.958;2022-09-13T05:57:49;7.72;;;5.40;;
22334;SDS011;11335;43.848;25.958;2022-09-13T06:00:35;12.05;;;6.20;;
22334;SDS011;11335;43.848;25.958;2022-09-13T06:03:21;7.30;;;5.85;;
22334;SDS011;11335;43.848;25.958;2022-09-13T06:06:09;13.35;;;5.95;;
22334;SDS011;11335;43.848;25.958;2022-09-13T06:08:55;8.60;;;6.50;;
22334;SDS011;11335;43.848;25.958;2022-09-13T06:11:42;8.52;;;6.63;;
22334;SDS011;11335;43.848;25.958;2022-09-13T06:14:27;6.53;;;5.82;;
22334;SDS011;11335;43.848;25.958;2022-09-13T06:17:13;9.32;;;6.07;;
22334;SDS011;11335;43.848;25.958;2022-09-13T06:19:59;9.32;;;6.30;;
22334;SDS011;11335;43.848;25.958;2022-09-13T06:22:46;8.68;;;6.28;;
22334;SDS011;11335;43.848;25.958;2022-09-13T06:25:32;8.77;;;6.20;;
22334;SDS011;11335;43.848;25.958;2022-09-13T06:28:18;9.52;;;6.70;;
22334;SDS011;11335;43.848;25.958;2022-09-13T06:31:08;9.25;;;7.15;;
22334;SDS011;11335;43.848;25.958;2022-09-13T06:33:56;9.63;;;7.05;;
22334;SDS011;11335;43.848;25.958;2022-09-13T06:36:43;10.70;;;6.90;;
22334;SDS011;11335;43.848;25.958;2022-09-13T06:39:29;9.10;;;7.15;;
22334;SDS011;11335;43.848;25.958;2022-09-13T06:42:16;11.25;;;7.18;;
22334;SDS011;11335;43.848;25.958;2022-09-13T06:45:02;9.90;;;7.25;;
22334;SDS011;11335;43.848;25.958;2022-09-13T06:47:48;15.65;;;8.30;;
22334;SDS011;11335;43.848;25.958;2022-09-13T06:50:34;11.00;;;8.27;;
22334;SDS011;11335;43.848;25.958;2022-09-13T06:53:20;9.75;;;7.78;;
22334;SDS011;11335;43.848;25.958;2022-09-13T06:56:06;9.85;;;7.45;;
22334;SDS011;11335;43.848;25.958;2022-09-13T06:59:01;11.55;;;7.88;;
22334;SDS011;11335;43.848;25.958;2022-09-13T07:01:49;14.70;;;8.18;;
22334;SDS011;11335;43.848;25.958;2022-09-13T07:04:35;12.07;;;8.05;;
22334;SDS011;11335;43.848;25.958;2022-09-13T07:07:20;11.40;;;8.65;;
22334;SDS011;11335;43.848;25.958;2022-09-13T07:10:06;12.23;;;7.97;;
22334;SDS011;11335;43.848;25.958;2022-09-13T07:12:53;10.38;;;7.47;;
22334;SDS011;11335;43.848;25.958;2022-09-13T07:15:38;10.82;;;7.55;;
22334;SDS011;11335;43.848;25.958;2022-09-13T07:18:24;9.23;;;7.65;;
22334;SDS011;11335;43.848;25.958;2022-09-13T07:21:10;9.95;;;7.00;;
22334;SDS011;11335;43.848;25.958;2022-09-13T07:23:56;9.18;;;8.05;;
22334;SDS011;11335;43.848;25.958;2022-09-13T07:26:43;11.43;;;7.95;;
22334;SDS011;11335;43.848;25.958;2022-09-13T07:29:29;8.15;;;7.25;;
22334;SDS011;11335;43.848;25.958;2022-09-13T07:32:18;8.35;;;7.32;;
22334;SDS011;11335;43.848;25.958;2022-09-13T07:35:04;9.02;;;7.38;;
22334;SDS011;11335;43.848;25.958;2022-09-13T07:37:52;10.63;;;7.90;;
22334;SDS011;11335;43.848;25.958;2022-09-13T07:40:38;9.02;;;6.40;;
22334;SDS011;11335;43.848;25.958;2022-09-13T07:43:24;8.50;;;7.22;;
22334;SDS011;11335;43.848;25.958;2022-09-13T07:46:11;8.70;;;6.85;;
22334;SDS011;11335;43.848;25.958;2022-09-13T07:48:59;14.02;;;6.88;;
22334;SDS011;11335;43.848;25.958;2022-09-13T07:51:46;8.20;;;6.70;;
22334;SDS011;11335;43.848;25.958;2022-09-13T07:54:35;10.93;;;7.60;;
22334;SDS011;11335;43.848;25.958;2022-09-13T07:57:22;8.98;;;6.47;;
22334;SDS011;11335;43.848;25.958;2022-09-13T08:00:08;10.23;;;7.28;;
22334;SDS011;11335;43.848;25.958;2022-09-13T08:02:55;9.25;;;7.30;;
22334;SDS011;11335;43.848;25.958;2022-09-13T08:05:41;13.88;;;6.65;;
22334;SDS011;11335;43.848;25.958;2022-09-13T08:08:30;9.88;;;6.95;;
22334;SDS011;11335;43.848;25.958;2022-09-13T08:11:17;8.57;;;6.88;;
22334;SDS011;11335;43.848;25.958;2022-09-13T08:14:06;9.25;;;6.85;;
22334;SDS011;11335;43.848;25.958;2022-09-13T08:16:55;10.50;;;6.90;;
22334;SDS011;11335;43.848;25.958;2022-09-13T08:19:41;11.52;;;7.88;;
22334;SDS011;11335;43.848;25.958;2022-09-13T08:22:27;10.63;;;6.40;;
22334;SDS011;11335;43.848;25.958;2022-09-13T08:25:13;9.20;;;5.80;;
22334;SDS011;11335;43.848;25.958;2022-09-13T08:28:00;8.95;;;5.55;;
22334;SDS011;11335;43.848;25.958;2022-09-13T08:30:46;8.60;;;5.80;;
22334;SDS011;11335;43.848;25.958;2022-09-13T08:33:33;8.77;;;5.57;;
22334;SDS011;11335;43.848;25.958;2022-09-13T08:36:20;8.25;;;5.82;;
22334;SDS011;11335;43.848;25.958;2022-09-13T08:39:08;12.25;;;7.35;;
22334;SDS011;11335;43.848;25.958;2022-09-13T08:42:00;10.77;;;6.97;;
22334;SDS011;11335;43.848;25.958;2022-09-13T08:44:55;6.25;;;4.25;;
22334;SDS011;11335;43.848;25.958;2022-09-13T08:47:47;5.25;;;4.38;;
22334;SDS011;11335;43.848;25.958;2022-09-13T08:50:43;6.18;;;4.55;;
22334;SDS011;11335;43.848;25.958;2022-09-13T08:53:30;8.45;;;4.63;;
22334;SDS011;11335;43.848;25.958;2022-09-13T09:02:25;9.95;;;4.40;;
22334;SDS011;11335;43.848;25.958;2022-09-13T09:05:28;4.57;;;3.47;;
22334;SDS011;11335;43.848;25.958;2022-09-13T09:11:25;6.10;;;4.35;;
22334;SDS011;11335;43.848;25.958;2022-09-13T09:14:24;7.55;;;3.67;;
22334;SDS011;11335;43.848;25.958;2022-09-13T09:17:22;5.18;;;4.10;;
22334;SDS011;11335;43.848;25.958;2022-09-13T09:29:25;7.68;;;3.58;;
22334;SDS011;11335;43.848;25.958;2022-09-13T09:41:28;4.20;;;3.38;;
22334;SDS011;11335;43.848;25.958;2022-09-13T09:44:21;4.30;;;2.92;;
22334;SDS011;11335;43.848;25.958;2022-09-13T09:47:16;4.13;;;3.10;;
22334;SDS011;11335;43.848;25.958;2022-09-13T09:50:12;8.30;;;2.55;;
22334;SDS011;11335;43.848;25.958;2022-09-13T09:56:21;4.70;;;2.53;;
22334;SDS011;11335;43.848;25.958;2022-09-13T09:59:24;4.57;;;2.25;;
22334;SDS011;11335;43.848;25.958;2022-09-13T10:02:14;5.28;;;2.13;;
22334;SDS011;11335;43.848;25.958;2022-09-13T10:05:03;2.53;;;2.05;;
22334;SDS011;11335;43.848;25.958;2022-09-13T10:07:56;2.70;;;2.05;;
22334;SDS011;11335;43.848;25.958;2022-09-13T10:10:53;3.83;;;2.20;;
22334;SDS011;11335;43.848;25.958;2022-09-13T10:14:03;4.80;;;2.28;;
22334;SDS011;11335;43.848;25.958;2022-09-13T10:16:47;4.43;;;2.10;;
22334;SDS011;11335;43.848;25.958;2022-09-13T10:19:56;4.35;;;2.25;;
22334;SDS011;11335;43.848;25.958;2022-09-13T10:23:08;3.42;;;2.20;;
22334;SDS011;11335;43.848;25.958;2022-09-13T10:26:09;3.13;;;2.38;;
22334;SDS011;11335;43.848;25.958;2022-09-13T10:29:07;3.22;;;2.25;;
22334;SDS011;11335;43.848;25.958;2022-09-13T10:31:57;2.45;;;2.22;;
22334;SDS011;11335;43.848;25.958;2022-09-13T10:34:47;4.20;;;2.30;;
22334;SDS011;11335;43.848;25.958;2022-09-13T10:37:34;3.33;;;2.15;;
22334;SDS011;11335;43.848;25.958;2022-09-13T10:40:24;2.17;;;1.95;;
22334;SDS011;11335;43.848;25.958;2022-09-13T10:43:14;3.58;;;2.00;;
22334;SDS011;11335;43.848;25.958;2022-09-13T10:46:05;2.58;;;2.20;;
22334;SDS011;11335;43.848;25.958;2022-09-13T10:48:57;2.53;;;2.10;;
22334;SDS011;11335;43.848;25.958;2022-09-13T10:51:44;2.85;;;2.15;;
22334;SDS011;11335;43.848;25.958;2022-09-13T10:54:29;4.78;;;2.08;;
22334;SDS011;11335;43.848;25.958;2022-09-13T11:09:15;3.10;;;1.70;;
22334;SDS011;11335;43.848;25.958;2022-09-13T11:15:12;2.28;;;1.73;;
22334;SDS011;11335;43.848;25.958;2022-09-13T11:19:16;2.05;;;1.85;;
22334;SDS011;11335;43.848;25.958;2022-09-13T11:31:00;2.95;;;1.90;;
22334;SDS011;11335;43.848;25.958;2022-09-13T11:43:26;2.60;;;1.83;;
22334;SDS011;11335;43.848;25.958;2022-09-13T11:56:00;4.32;;;1.60;;
22334;SDS011;11335;43.848;25.958;2022-09-13T12:05:34;5.30;;;1.75;;
22334;SDS011;11335;43.848;25.958;2022-09-13T12:08:31;4.38;;;2.55;;
22334;SDS011;11335;43.848;25.958;2022-09-13T12:11:22;2.58;;;1.90;;
22334;SDS011;11335;43.848;25.958;2022-09-13T12:14:17;1.92;;;1.73;;
22334;SDS011;11335;43.848;25.958;2022-09-13T12:17:10;2.97;;;2.05;;
22334;SDS011;11335;43.848;25.958;2022-09-13T12:20:15;2.30;;;1.70;;
22334;SDS011;11335;43.848;25.958;2022-09-13T12:23:14;6.00;;;1.80;;
22334;SDS011;11335;43.848;25.958;2022-09-13T12:26:05;4.72;;;1.80;;
22334;SDS011;11335;43.848;25.958;2022-09-13T12:29:03;4.72;;;2.20;;
22334;SDS011;11335;43.848;25.958;2022-09-13T12:31:58;4.72;;;2.05;;
22334;SDS011;11335;43.848;25.958;2022-09-13T12:40:44;3.10;;;1.85;;
22334;SDS011;11335;43.848;25.958;2022-09-13T12:50:06;3.92;;;1.90;;
22334;SDS011;11335;43.848;25.958;2022-09-13T12:56:27;2.65;;;1.83;;
22334;SDS011;11335;43.848;25.958;2022-09-13T13:11:11;4.38;;;2.25;;
22334;SDS011;11335;43.848;25.958;2022-09-13T13:13:59;2.90;;;2.10;;
22334;SDS011;11335;43.848;25.958;2022-09-13T13:16:53;2.63;;;1.80;;
22334;SDS011;11335;43.848;25.958;2022-09-13T13:19:39;2.25;;;1.80;;
22334;SDS011;11335;43.848;25.958;2022-09-13T13:37:18;3.83;;;1.85;;
22334;SDS011;11335;43.848;25.958;2022-09-13T13:40:19;2.65;;;1.95;;
22334;SDS011;11335;43.848;25.958;2022-09-13T13:43:43;4.45;;;1.83;;
22334;SDS011;11335;43.848;25.958;2022-09-13T13:46:23;4.72;;;1.90;;
22334;SDS011;11335;43.848;25.958;2022-09-13T13:55:27;2.40;;;1.90;;
22334;SDS011;11335;43.848;25.958;2022-09-13T14:01:35;3.75;;;2.17;;
22334;SDS011;11335;43.848;25.958;2022-09-13T14:04:38;3.80;;;2.28;;
22334;SDS011;11335;43.848;25.958;2022-09-13T14:10:47;3.35;;;1.90;;
22334;SDS011;11335;43.848;25.958;2022-09-13T14:19:47;2.47;;;1.90;;
22334;SDS011;11335;43.848;25.958;2022-09-13T14:22:38;3.35;;;2.03;;
22334;SDS011;11335;43.848;25.958;2022-09-13T14:25:24;4.60;;;2.20;;
22334;SDS011;11335;43.848;25.958;2022-09-13T14:28:15;3.38;;;2.10;;
22334;SDS011;11335;43.848;25.958;2022-09-13T14:31:04;4.22;;;2.47;;
22334;SDS011;11335;43.848;25.958;2022-09-13T14:33:50;3.58;;;1.90;;
22334;SDS011;11335;43.848;25.958;2022-09-13T14:36:37;2.85;;;2.05;;
22334;SDS011;11335;43.848;25.958;2022-09-13T14:39:23;3.35;;;1.95;;
22334;SDS011;11335;43.848;25.958;2022-09-13T14:42:11;2.50;;;2.10;;
22334;SDS011;11335;43.848;25.958;2022-09-13T14:44:59;4.28;;;2.00;;
22334;SDS011;11335;43.848;25.958;2022-09-13T14:47:46;4.82;;;1.67;;
22334;SDS011;11335;43.848;25.958;2022-09-13T14:50:36;2.38;;;1.70;;
22334;SDS011;11335;43.848;25.958;2022-09-13T14:53:31;8.38;;;2.10;;
22334;SDS011;11335;43.848;25.958;2022-09-13T14:57:21;3.75;;;1.80;;
22334;SDS011;11335;43.848;25.958;2022-09-13T14:59:49;2.70;;;2.05;;
22334;SDS011;11335;43.848;25.958;2022-09-13T15:02:38;2.15;;;1.60;;
22334;SDS011;11335;43.848;25.958;2022-09-13T15:05:25;3.13;;;1.75;;
22334;SDS011;11335;43.848;25.958;2022-09-13T15:11:28;3.15;;;1.70;;
22334;SDS011;11335;43.848;25.958;2022-09-13T15:17:19;4.50;;;2.03;;
22334;SDS011;11335;43.848;25.958;2022-09-13T15:20:10;3.00;;;1.98;;
22334;SDS011;11335;43.848;25.958;2022-09-13T15:22:56;5.47;;;2.30;;
22334;SDS011;11335;43.848;25.958;2022-09-13T15:25:46;3.35;;;1.92;;
22334;SDS011;11335;43.848;25.958;2022-09-13T15:28:44;3.45;;;2.10;;
22334;SDS011;11335;43.848;25.958;2022-09-13T15:31:37;2.67;;;1.95;;
22334;SDS011;11335;43.848;25.958;2022-09-13T15:34:23;2.67;;;1.75;;
22334;SDS011;11335;43.848;25.958;2022-09-13T15:37:12;3.83;;;2.03;;
22334;SDS011;11335;43.848;25.958;2022-09-13T15:40:16;4.38;;;2.13;;
22334;SDS011;11335;43.848;25.958;2022-09-13T15:43:05;6.70;;;2.22;;
22334;SDS011;11335;43.848;25.958;2022-09-13T15:45:51;2.28;;;1.90;;
22334;SDS011;11335;43.848;25.958;2022-09-13T15:48:37;3.80;;;1.95;;
22334;SDS011;11335;43.848;25.958;2022-09-13T15:51:24;2.20;;;1.92;;
22334;SDS011;11335;43.848;25.958;2022-09-13T15:54:11;4.93;;;2.28;;
22334;SDS011;11335;43.848;25.958;2022-09-13T15:56:58;8.70;;;2.28;;
22334;SDS011;11335;43.848;25.958;2022-09-13T15:59:44;2.25;;;1.80;;
22334;SDS011;11335;43.848;25.958;2022-09-13T16:02:30;4.72;;;2.13;;
22334;SDS011;11335;43.848;25.958;2022-09-13T16:05:17;7.88;;;1.98;;
22334;SDS011;11335;43.848;25.958;2022-09-13T16:08:03;4.63;;;2.35;;
22334;SDS011;11335;43.848;25.958;2022-09-13T16:10:49;6.68;;;2.15;;
22334;SDS011;11335;43.848;25.958;2022-09-13T16:13:35;2.95;;;2.20;;
22334;SDS011;11335;43.848;25.958;2022-09-13T16:16:21;4.55;;;2.50;;
22334;SDS011;11335;43.848;25.958;2022-09-13T16:19:40;3.58;;;2.50;;
22334;SDS011;11335;43.848;25.958;2022-09-13T16:22:19;5.43;;;2.30;;
22334;SDS011;11335;43.848;25.958;2022-09-13T16:25:05;8.55;;;2.80;;
22334;SDS011;11335;43.848;25.958;2022-09-13T16:27:51;4.10;;;2.90;;
22334;SDS011;11335;43.848;25.958;2022-09-13T16:30:39;2.92;;;2.50;;
22334;SDS011;11335;43.848;25.958;2022-09-13T16:33:25;6.32;;;2.58;;
22334;SDS011;11335;43.848;25.958;2022-09-13T16:36:11;8.07;;;2.40;;
22334;SDS011;11335;43.848;25.958;2022-09-13T16:38:57;7.80;;;2.60;;
22334;SDS011;11335;43.848;25.958;2022-09-13T16:41:42;4.88;;;2.67;;
22334;SDS011;11335;43.848;25.958;2022-09-13T16:44:28;7.18;;;2.83;;
22334;SDS011;11335;43.848;25.958;2022-09-13T16:47:14;4.90;;;2.40;;
22334;SDS011;11335;43.848;25.958;2022-09-13T16:50:00;6.97;;;2.63;;
22334;SDS011;11335;43.848;25.958;2022-09-13T16:52:46;6.13;;;2.88;;
22334;SDS011;11335;43.848;25.958;2022-09-13T16:55:31;13.07;;;5.40;;
22334;SDS011;11335;43.848;25.958;2022-09-13T16:58:17;9.98;;;6.30;;
22334;SDS011;11335;43.848;25.958;2022-09-13T17:01:04;5.90;;;3.10;;
22334;SDS011;11335;43.848;25.958;2022-09-13T17:03:54;7.13;;;3.10;;
22334;SDS011;11335;43.848;25.958;2022-09-13T17:06:41;4.00;;;2.40;;
22334;SDS011;11335;43.848;25.958;2022-09-13T17:09:27;7.45;;;3.20;;
22334;SDS011;11335;43.848;25.958;2022-09-13T17:12:13;7.18;;;3.60;;
22334;SDS011;11335;43.848;25.958;2022-09-13T17:14:59;9.80;;;3.20;;
22334;SDS011;11335;43.848;25.958;2022-09-13T17:17:45;7.70;;;3.30;;
22334;SDS011;11335;43.848;25.958;2022-09-13T17:20:30;6.25;;;4.00;;
22334;SDS011;11335;43.848;25.958;2022-09-13T17:23:16;7.20;;;4.07;;
22334;SDS011;11335;43.848;25.958;2022-09-13T17:26:02;9.40;;;4.45;;
22334;SDS011;11335;43.848;25.958;2022-09-13T17:28:48;13.40;;;4.40;;
22334;SDS011;11335;43.848;25.958;2022-09-13T17:31:34;8.07;;;4.35;;
22334;SDS011;11335;43.848;25.958;2022-09-13T17:34:20;12.68;;;4.28;;
22334;SDS011;11335;43.848;25.958;2022-09-13T17:37:05;6.07;;;3.40;;
22334;SDS011;11335;43.848;25.958;2022-09-13T17:39:51;9.13;;;3.58;;
22334;SDS011;11335;43.848;25.958;2022-09-13T17:42:37;6.25;;;3.05;;
22334;SDS011;11335;43.848;25.958;2022-09-13T17:45:23;8.00;;;3.22;;
22334;SDS011;11335;43.848;25.958;2022-09-13T17:48:09;8.23;;;3.40;;
22334;SDS011;11335;43.848;25.958;2022-09-13T17:51:29;9.35;;;3.63;;
22334;SDS011;11335;43.848;25.958;2022-09-13T17:54:09;8.55;;;3.20;;
22334;SDS011;11335;43.848;25.958;2022-09-13T17:56:56;8.38;;;3.17;;
22334;SDS011;11335;43.848;25.958;2022-09-13T17:59:41;6.05;;;2.78;;
22334;SDS011;11335;43.848;25.958;2022-09-13T18:02:27;6.95;;;2.90;;
22334;SDS011;11335;43.848;25.958;2022-09-13T18:05:13;6.65;;;3.00;;
22334;SDS011;11335;43.848;25.958;2022-09-13T18:07:59;7.90;;;3.75;;
22334;SDS011;11335;43.848;25.958;2022-09-13T18:10:45;7.18;;;3.25;;
22334;SDS011;11335;43.848;25.958;2022-09-13T18:13:31;6.43;;;3.40;;
22334;SDS011;11335;43.848;25.958;2022-09-13T18:16:19;6.68;;;3.65;;
22334;SDS011;11335;43.848;25.958;2022-09-13T18:19:07;8.82;;;3.58;;
22334;SDS011;11335;43.848;25.958;2022-09-13T18:21:53;8.82;;;3.65;;
22334;SDS011;11335;43.848;25.958;2022-09-13T18:24:39;6.65;;;3.25;;
22334;SDS011;11335;43.848;25.958;2022-09-13T18:27:25;5.85;;;3.03;;
22334;SDS011;11335;43.848;25.958;2022-09-13T18:30:10;8.85;;;3.20;;
22334;SDS011;11335;43.848;25.958;2022-09-13T18:32:56;9.70;;;3.22;;
22334;SDS011;11335;43.848;25.958;2022-09-13T18:35:42;8.13;;;3.60;;
22334;SDS011;11335;43.848;25.958;2022-09-13T18:38:30;7.45;;;3.67;;
22334;SDS011;11335;43.848;25.958;2022-09-13T18:41:19;9.43;;;3.65;;
22334;SDS011;11335;43.848;25.958;2022-09-13T18:44:07;10.48;;;3.40;;
22334;SDS011;11335;43.848;25.958;2022-09-13T18:46:54;8.30;;;3.38;;
22334;SDS011;11335;43.848;25.958;2022-09-13T18:49:42;5.93;;;3.40;;
22334;SDS011;11335;43.848;25.958;2022-09-13T18:52:28;5.70;;;3.05;;
22334;SDS011;11335;43.848;25.958;2022-09-13T18:55:13;6.97;;;3.42;;
22334;SDS011;11335;43.848;25.958;2022-09-13T18:57:59;9.93;;;3.60;;
22334;SDS011;11335;43.848;25.958;2022-09-13T19:00:45;10.02;;;4.40;;
22334;SDS011;11335;43.848;25.958;2022-09-13T19:03:31;10.15;;;5.00;;
22334;SDS011;11335;43.848;25.958;2022-09-13T19:06:21;12.27;;;6.30;;
22334;SDS011;11335;43.848;25.958;2022-09-13T19:09:10;6.07;;;4.45;;
22334;SDS011;11335;43.848;25.958;2022-09-13T19:11:57;6.07;;;3.80;;
22334;SDS011;11335;43.848;25.958;2022-09-13T19:14:43;6.78;;;3.67;;
22334;SDS011;11335;43.848;25.958;2022-09-13T19:17:28;11.88;;;4.72;;
22334;SDS011;11335;43.848;25.958;2022-09-13T19:20:14;8.70;;;4.28;;
22334;SDS011;11335;43.848;25.958;2022-09-13T19:23:00;7.57;;;3.25;;
22334;SDS011;11335;43.848;25.958;2022-09-13T19:25:47;6.30;;;3.40;;
22334;SDS011;11335;43.848;25.958;2022-09-13T19:28:33;5.30;;;2.90;;
22334;SDS011;11335;43.848;25.958;2022-09-13T19:31:19;7.57;;;3.10;;
22334;SDS011;11335;43.848;25.958;2022-09-13T19:34:07;6.68;;;3.28;;
22334;SDS011;11335;43.848;25.958;2022-09-13T19:36:53;7.45;;;3.20;;
22334;SDS011;11335;43.848;25.958;2022-09-13T19:39:41;6.32;;;3.60;;
22334;SDS011;11335;43.848;25.958;2022-09-13T19:42:27;7.35;;;3.35;;
22334;SDS011;11335;43.848;25.958;2022-09-13T19:45:13;4.25;;;2.65;;
22334;SDS011;11335;43.848;25.958;2022-09-13T19:47:59;8.35;;;2.90;;
22334;SDS011;11335;43.848;25.958;2022-09-13T19:50:45;4.03;;;3.08;;
22334;SDS011;11335;43.848;25.958;2022-09-13T19:53:31;4.65;;;2.90;;
22334;SDS011;11335;43.848;25.958;2022-09-13T19:56:18;9.75;;;2.75;;